Huvudsida
METAR-TAF:

METAR-TAF

Flygplatser :

Montpellier, Frankrike

latitud: 43-35N, longitud: 003-58E, höjd: 5 m

Aktuellt väderrapport

Denna rapport gjordes för 15 minuter sedan, klockan 15:30 UTC
Vind 14 kt från nord
Temperatur 18°C
Fuktighet 45%
Tryck 1011 hPa
Sikt 10 km eller mer

METAR: LFMT 291530Z AUTO 01014KT 9999 NSC 18/06 Q1011 TEMPO SHRA SCT040TCU

Tid: 17:45 (15:45 UTC)

Väderprognos

Denna rapport gjordes för 1 timme och 45 minuter sedan, klockan 14:00 UTC
Prognos gäller från 29 kl. 15 UTC till 30 kl. 15 UTC
Vind 10 kt från nord
Sikt 10 km eller mer
Inga moln under 1 500 m eller inga cumulonimbus
Temporärt
från 29 kl. 15 UTC till 29 kl. 19 UTC
Spridda moln på en höjd av 4000 ft, Högtornande cumulus.
regnskurar
Temporärt
från 29 kl. 20 UTC till 29 kl. 24 UTC
Vind 15 kt från nord/nordost
Blir
från 30 kl. 13 UTC till 30 kl. 15 UTC
Vind 10 kt från sydväst

TAF: LFMT 291400Z 2915/3015 36010KT CAVOK TEMPO 2915/2919 SHRA SCT040TCU TEMPO 2920/2924 02015KT BECMG 3013/3015 22010KT

Aktuella väderrapporter och prognoser från 4000 flygplatser (METAR- och TAF-rapporter).

De tillgängliga stationerna syns som gula och röda prickar på kartan.

För musen över prickarna för att se namnen på stationerna.

Klicka sedan för att få väderrapporter och prognoser.

För att ändra kartan: Klicka på de gröna knapparna med ett svart kors på för att zooma in; den gröna knappen med ett streck på för att zooma ut; eller på de gröna pilarna för angränsande kartor.


METAR-TAF: